sensor_id;sensor_type;location;lat;lon;timestamp;P1;durP1;ratioP1;P2;durP2;ratioP2
14663;SDS011;7419;52.184;5.944;2023-02-23T00:02:55;31.81;;;13.71;;
14663;SDS011;7419;52.184;5.944;2023-02-23T00:02:55;28.99;;;14.63;;
14663;SDS011;7419;52.184;5.944;2023-02-23T00:02:55;30.54;;;14.09;;
14663;SDS011;7419;52.184;5.944;2023-02-23T00:03:36;30.90;;;15.48;;
14663;SDS011;7419;52.184;5.944;2023-02-23T00:04:36;26.67;;;13.24;;
14663;SDS011;7419;52.184;5.944;2023-02-23T00:05:36;29.17;;;13.03;;
14663;SDS011;7419;52.184;5.944;2023-02-23T00:06:36;25.48;;;13.31;;
14663;SDS011;7419;52.184;5.944;2023-02-23T00:07:36;25.22;;;13.65;;
14663;SDS011;7419;52.184;5.944;2023-02-23T00:08:36;28.23;;;13.44;;
14663;SDS011;7419;52.184;5.944;2023-02-23T00:09:36;31.79;;;14.66;;
14663;SDS011;7419;52.184;5.944;2023-02-23T00:10:36;26.18;;;13.05;;
14663;SDS011;7419;52.184;5.944;2023-02-23T00:11:37;31.46;;;14.44;;
14663;SDS011;7419;52.184;5.944;2023-02-23T00:12:37;29.85;;;13.94;;
14663;SDS011;7419;52.184;5.944;2023-02-23T00:13:37;26.86;;;13.00;;
14663;SDS011;7419;52.184;5.944;2023-02-23T00:14:37;29.53;;;13.63;;
14663;SDS011;7419;52.184;5.944;2023-02-23T00:15:37;29.09;;;13.58;;
14663;SDS011;7419;52.184;5.944;2023-02-23T00:16:37;24.35;;;11.84;;
14663;SDS011;7419;52.184;5.944;2023-02-23T00:17:37;29.33;;;13.76;;
14663;SDS011;7419;52.184;5.944;2023-02-23T00:18:37;28.96;;;14.04;;
14663;SDS011;7419;52.184;5.944;2023-02-23T00:19:37;31.98;;;14.77;;
14663;SDS011;7419;52.184;5.944;2023-02-23T00:20:37;26.02;;;12.93;;
14663;SDS011;7419;52.184;5.944;2023-02-23T00:21:37;31.41;;;13.93;;
14663;SDS011;7419;52.184;5.944;2023-02-23T00:22:37;27.03;;;13.96;;
14663;SDS011;7419;52.184;5.944;2023-02-23T00:23:37;26.06;;;13.09;;
14663;SDS011;7419;52.184;5.944;2023-02-23T00:24:37;33.65;;;13.92;;
14663;SDS011;7419;52.184;5.944;2023-02-23T00:25:38;25.36;;;12.74;;
14663;SDS011;7419;52.184;5.944;2023-02-23T00:26:38;31.23;;;13.38;;
14663;SDS011;7419;52.184;5.944;2023-02-23T00:27:38;33.96;;;14.37;;
14663;SDS011;7419;52.184;5.944;2023-02-23T00:28:39;23.40;;;12.98;;
14663;SDS011;7419;52.184;5.944;2023-02-23T00:29:38;28.76;;;12.65;;
14663;SDS011;7419;52.184;5.944;2023-02-23T00:30:38;25.34;;;12.72;;
14663;SDS011;7419;52.184;5.944;2023-02-23T00:31:38;29.17;;;13.64;;
14663;SDS011;7419;52.184;5.944;2023-02-23T00:32:38;29.25;;;13.20;;
14663;SDS011;7419;52.184;5.944;2023-02-23T00:33:38;30.65;;;14.06;;
14663;SDS011;7419;52.184;5.944;2023-02-23T00:34:38;26.90;;;12.79;;
14663;SDS011;7419;52.184;5.944;2023-02-23T00:35:38;28.92;;;14.43;;
14663;SDS011;7419;52.184;5.944;2023-02-23T00:36:38;24.06;;;11.71;;
14663;SDS011;7419;52.184;5.944;2023-02-23T00:37:38;25.25;;;12.25;;
14663;SDS011;7419;52.184;5.944;2023-02-23T00:38:39;28.70;;;13.07;;
14663;SDS011;7419;52.184;5.944;2023-02-23T00:39:38;27.56;;;13.51;;
14663;SDS011;7419;52.184;5.944;2023-02-23T00:40:38;26.72;;;12.29;;
14663;SDS011;7419;52.184;5.944;2023-02-23T00:41:38;25.23;;;12.23;;
14663;SDS011;7419;52.184;5.944;2023-02-23T00:42:39;30.01;;;12.99;;
14663;SDS011;7419;52.184;5.944;2023-02-23T00:43:39;24.83;;;12.34;;
14663;SDS011;7419;52.184;5.944;2023-02-23T00:44:39;28.30;;;12.94;;
14663;SDS011;7419;52.184;5.944;2023-02-23T00:45:39;26.98;;;12.61;;
14663;SDS011;7419;52.184;5.944;2023-02-23T00:46:39;25.14;;;13.61;;
14663;SDS011;7419;52.184;5.944;2023-02-23T00:47:39;30.77;;;14.47;;
14663;SDS011;7419;52.184;5.944;2023-02-23T00:48:39;27.57;;;12.46;;
14663;SDS011;7419;52.184;5.944;2023-02-23T00:49:39;25.67;;;13.71;;
14663;SDS011;7419;52.184;5.944;2023-02-23T00:50:39;28.74;;;13.47;;
14663;SDS011;7419;52.184;5.944;2023-02-23T00:51:39;26.29;;;12.98;;
14663;SDS011;7419;52.184;5.944;2023-02-23T00:52:40;29.51;;;14.15;;
14663;SDS011;7419;52.184;5.944;2023-02-23T00:53:39;25.35;;;12.31;;
14663;SDS011;7419;52.184;5.944;2023-02-23T00:54:39;27.90;;;13.78;;
14663;SDS011;7419;52.184;5.944;2023-02-23T00:55:40;26.59;;;13.08;;
14663;SDS011;7419;52.184;5.944;2023-02-23T00:56:39;28.73;;;13.20;;
14663;SDS011;7419;52.184;5.944;2023-02-23T00:57:40;26.31;;;13.04;;
14663;SDS011;7419;52.184;5.944;2023-02-23T00:58:40;25.87;;;13.65;;
14663;SDS011;7419;52.184;5.944;2023-02-23T00:59:40;31.70;;;14.13;;
14663;SDS011;7419;52.184;5.944;2023-02-23T01:00:40;30.26;;;13.61;;
14663;SDS011;7419;52.184;5.944;2023-02-23T01:01:40;29.36;;;14.11;;
14663;SDS011;7419;52.184;5.944;2023-02-23T01:02:40;25.54;;;12.14;;
14663;SDS011;7419;52.184;5.944;2023-02-23T01:03:40;30.68;;;14.08;;
14663;SDS011;7419;52.184;5.944;2023-02-23T01:04:40;25.11;;;12.40;;
14663;SDS011;7419;52.184;5.944;2023-02-23T01:05:40;26.95;;;12.61;;
14663;SDS011;7419;52.184;5.944;2023-02-23T01:06:40;27.55;;;13.13;;
14663;SDS011;7419;52.184;5.944;2023-02-23T01:07:40;27.83;;;12.65;;
14663;SDS011;7419;52.184;5.944;2023-02-23T01:08:41;29.77;;;12.75;;
14663;SDS011;7419;52.184;5.944;2023-02-23T01:09:40;28.65;;;12.72;;
14663;SDS011;7419;52.184;5.944;2023-02-23T01:10:41;24.68;;;13.14;;
14663;SDS011;7419;52.184;5.944;2023-02-23T01:11:41;28.68;;;13.57;;
14663;SDS011;7419;52.184;5.944;2023-02-23T01:12:41;28.90;;;12.24;;
14663;SDS011;7419;52.184;5.944;2023-02-23T01:13:41;27.43;;;13.19;;
14663;SDS011;7419;52.184;5.944;2023-02-23T01:14:41;28.15;;;12.23;;
14663;SDS011;7419;52.184;5.944;2023-02-23T01:15:41;29.22;;;12.22;;
14663;SDS011;7419;52.184;5.944;2023-02-23T01:16:41;27.87;;;13.26;;
14663;SDS011;7419;52.184;5.944;2023-02-23T01:17:41;25.82;;;11.30;;
14663;SDS011;7419;52.184;5.944;2023-02-23T01:18:41;27.72;;;12.39;;
14663;SDS011;7419;52.184;5.944;2023-02-23T01:19:41;24.07;;;11.35;;
14663;SDS011;7419;52.184;5.944;2023-02-23T01:20:41;30.33;;;13.06;;
14663;SDS011;7419;52.184;5.944;2023-02-23T01:21:41;25.90;;;12.31;;
14663;SDS011;7419;52.184;5.944;2023-02-23T01:22:41;20.97;;;11.32;;
14663;SDS011;7419;52.184;5.944;2023-02-23T01:23:41;27.23;;;12.70;;
14663;SDS011;7419;52.184;5.944;2023-02-23T01:24:41;25.59;;;12.57;;
14663;SDS011;7419;52.184;5.944;2023-02-23T01:25:42;27.94;;;12.49;;
14663;SDS011;7419;52.184;5.944;2023-02-23T01:26:42;23.86;;;12.35;;
14663;SDS011;7419;52.184;5.944;2023-02-23T01:27:42;27.53;;;13.29;;
14663;SDS011;7419;52.184;5.944;2023-02-23T01:28:42;25.22;;;11.80;;
14663;SDS011;7419;52.184;5.944;2023-02-23T01:29:42;24.31;;;12.13;;
14663;SDS011;7419;52.184;5.944;2023-02-23T01:30:42;23.09;;;11.08;;
14663;SDS011;7419;52.184;5.944;2023-02-23T01:31:43;24.74;;;12.20;;
14663;SDS011;7419;52.184;5.944;2023-02-23T01:32:42;26.99;;;13.06;;
14663;SDS011;7419;52.184;5.944;2023-02-23T01:33:42;25.64;;;12.19;;
14663;SDS011;7419;52.184;5.944;2023-02-23T01:34:42;22.81;;;11.88;;
14663;SDS011;7419;52.184;5.944;2023-02-23T01:35:42;25.10;;;12.18;;
14663;SDS011;7419;52.184;5.944;2023-02-23T01:36:43;29.92;;;12.64;;
14663;SDS011;7419;52.184;5.944;2023-02-23T01:37:43;26.81;;;12.34;;
14663;SDS011;7419;52.184;5.944;2023-02-23T01:38:42;23.86;;;12.03;;
14663;SDS011;7419;52.184;5.944;2023-02-23T01:39:42;27.75;;;11.75;;
14663;SDS011;7419;52.184;5.944;2023-02-23T01:40:42;26.34;;;11.53;;
14663;SDS011;7419;52.184;5.944;2023-02-23T01:41:43;27.13;;;12.63;;
14663;SDS011;7419;52.184;5.944;2023-02-23T01:42:43;24.06;;;11.65;;
14663;SDS011;7419;52.184;5.944;2023-02-23T01:43:59;24.13;;;12.39;;
14663;SDS011;7419;52.184;5.944;2023-02-23T01:45:43;22.81;;;11.30;;
14663;SDS011;7419;52.184;5.944;2023-02-23T01:46:43;26.84;;;11.67;;
14663;SDS011;7419;52.184;5.944;2023-02-23T01:47:43;25.57;;;11.85;;
14663;SDS011;7419;52.184;5.944;2023-02-23T01:48:43;21.25;;;11.16;;
14663;SDS011;7419;52.184;5.944;2023-02-23T01:49:43;22.56;;;11.73;;
14663;SDS011;7419;52.184;5.944;2023-02-23T01:50:51;25.89;;;11.93;;
14663;SDS011;7419;52.184;5.944;2023-02-23T01:51:44;20.86;;;10.50;;
14663;SDS011;7419;52.184;5.944;2023-02-23T01:52:43;25.29;;;11.73;;
14663;SDS011;7419;52.184;5.944;2023-02-23T01:53:44;24.19;;;12.02;;
14663;SDS011;7419;52.184;5.944;2023-02-23T01:54:45;26.56;;;12.21;;
14663;SDS011;7419;52.184;5.944;2023-02-23T01:55:43;29.23;;;12.19;;
14663;SDS011;7419;52.184;5.944;2023-02-23T01:56:44;22.32;;;11.85;;
14663;SDS011;7419;52.184;5.944;2023-02-23T01:57:43;23.92;;;11.15;;
14663;SDS011;7419;52.184;5.944;2023-02-23T01:58:44;23.42;;;11.57;;
14663;SDS011;7419;52.184;5.944;2023-02-23T01:59:44;25.83;;;11.53;;
14663;SDS011;7419;52.184;5.944;2023-02-23T02:00:45;24.96;;;11.20;;
14663;SDS011;7419;52.184;5.944;2023-02-23T02:01:44;25.89;;;11.73;;
14663;SDS011;7419;52.184;5.944;2023-02-23T02:02:44;25.45;;;11.49;;
14663;SDS011;7419;52.184;5.944;2023-02-23T02:03:55;26.04;;;11.25;;
14663;SDS011;7419;52.184;5.944;2023-02-23T02:04:45;22.42;;;10.28;;
14663;SDS011;7419;52.184;5.944;2023-02-23T02:09:44;25.20;;;11.90;;
14663;SDS011;7419;52.184;5.944;2023-02-23T02:10:44;25.07;;;11.41;;
14663;SDS011;7419;52.184;5.944;2023-02-23T02:11:45;30.74;;;11.94;;
14663;SDS011;7419;52.184;5.944;2023-02-23T02:12:45;22.72;;;11.27;;
14663;SDS011;7419;52.184;5.944;2023-02-23T02:13:44;26.05;;;11.57;;
14663;SDS011;7419;52.184;5.944;2023-02-23T02:14:44;23.45;;;11.93;;
14663;SDS011;7419;52.184;5.944;2023-02-23T02:15:48;25.93;;;12.53;;
14663;SDS011;7419;52.184;5.944;2023-02-23T02:16:47;25.81;;;10.56;;
14663;SDS011;7419;52.184;5.944;2023-02-23T02:17:45;23.62;;;9.92;;
14663;SDS011;7419;52.184;5.944;2023-02-23T02:18:49;16.58;;;9.39;;
14663;SDS011;7419;52.184;5.944;2023-02-23T02:19:51;25.89;;;10.87;;
14663;SDS011;7419;52.184;5.944;2023-02-23T02:20:50;21.32;;;10.84;;
14663;SDS011;7419;52.184;5.944;2023-02-23T02:21:51;23.13;;;10.92;;
14663;SDS011;7419;52.184;5.944;2023-02-23T02:22:48;27.14;;;11.89;;
14663;SDS011;7419;52.184;5.944;2023-02-23T02:23:50;22.59;;;11.24;;
14663;SDS011;7419;52.184;5.944;2023-02-23T02:24:51;22.92;;;10.93;;
14663;SDS011;7419;52.184;5.944;2023-02-23T02:25:48;18.05;;;9.89;;
14663;SDS011;7419;52.184;5.944;2023-02-23T02:26:48;21.00;;;10.87;;
14663;SDS011;7419;52.184;5.944;2023-02-23T02:27:53;22.30;;;10.86;;
14663;SDS011;7419;52.184;5.944;2023-02-23T02:28:53;22.50;;;10.72;;
14663;SDS011;7419;52.184;5.944;2023-02-23T02:30:48;25.83;;;10.71;;
14663;SDS011;7419;52.184;5.944;2023-02-23T02:32:06;23.20;;;11.06;;
14663;SDS011;7419;52.184;5.944;2023-02-23T02:32:54;23.73;;;11.89;;
14663;SDS011;7419;52.184;5.944;2023-02-23T02:33:51;25.74;;;11.78;;
14663;SDS011;7419;52.184;5.944;2023-02-23T02:34:48;21.63;;;10.10;;
14663;SDS011;7419;52.184;5.944;2023-02-23T02:35:49;21.81;;;10.40;;
14663;SDS011;7419;52.184;5.944;2023-02-23T02:36:51;25.04;;;11.76;;
14663;SDS011;7419;52.184;5.944;2023-02-23T02:37:49;23.74;;;10.74;;
14663;SDS011;7419;52.184;5.944;2023-02-23T02:38:48;20.69;;;10.35;;
14663;SDS011;7419;52.184;5.944;2023-02-23T02:39:47;24.78;;;11.78;;
14663;SDS011;7419;52.184;5.944;2023-02-23T02:40:48;23.20;;;11.63;;
14663;SDS011;7419;52.184;5.944;2023-02-23T02:41:47;24.12;;;11.27;;
14663;SDS011;7419;52.184;5.944;2023-02-23T02:42:48;24.96;;;11.06;;
14663;SDS011;7419;52.184;5.944;2023-02-23T02:43:47;21.44;;;10.35;;
14663;SDS011;7419;52.184;5.944;2023-02-23T02:44:49;20.36;;;10.39;;
14663;SDS011;7419;52.184;5.944;2023-02-23T02:45:47;21.07;;;10.24;;
14663;SDS011;7419;52.184;5.944;2023-02-23T02:46:46;25.95;;;10.87;;
14663;SDS011;7419;52.184;5.944;2023-02-23T02:47:48;25.05;;;11.39;;
14663;SDS011;7419;52.184;5.944;2023-02-23T02:48:47;25.10;;;11.42;;
14663;SDS011;7419;52.184;5.944;2023-02-23T02:49:48;21.71;;;10.96;;
14663;SDS011;7419;52.184;5.944;2023-02-23T02:50:49;22.29;;;10.01;;
14663;SDS011;7419;52.184;5.944;2023-02-23T02:51:47;22.71;;;10.99;;
14663;SDS011;7419;52.184;5.944;2023-02-23T02:52:47;25.30;;;11.18;;
14663;SDS011;7419;52.184;5.944;2023-02-23T02:53:48;23.93;;;11.09;;
14663;SDS011;7419;52.184;5.944;2023-02-23T02:54:47;26.48;;;11.34;;
14663;SDS011;7419;52.184;5.944;2023-02-23T02:55:47;22.47;;;10.76;;
14663;SDS011;7419;52.184;5.944;2023-02-23T02:56:47;20.94;;;10.84;;
14663;SDS011;7419;52.184;5.944;2023-02-23T02:57:47;20.85;;;10.46;;
14663;SDS011;7419;52.184;5.944;2023-02-23T02:58:47;23.29;;;11.14;;
14663;SDS011;7419;52.184;5.944;2023-02-23T02:59:48;22.21;;;10.95;;
14663;SDS011;7419;52.184;5.944;2023-02-23T03:00:47;23.56;;;10.59;;
14663;SDS011;7419;52.184;5.944;2023-02-23T03:01:47;22.33;;;10.97;;
14663;SDS011;7419;52.184;5.944;2023-02-23T03:02:47;26.02;;;10.94;;
14663;SDS011;7419;52.184;5.944;2023-02-23T03:03:47;24.75;;;11.90;;
14663;SDS011;7419;52.184;5.944;2023-02-23T03:04:47;24.48;;;12.58;;
14663;SDS011;7419;52.184;5.944;2023-02-23T03:05:48;27.36;;;11.92;;
14663;SDS011;7419;52.184;5.944;2023-02-23T03:06:49;23.04;;;10.89;;
14663;SDS011;7419;52.184;5.944;2023-02-23T03:07:49;25.75;;;11.27;;
14663;SDS011;7419;52.184;5.944;2023-02-23T03:08:49;22.74;;;11.66;;
14663;SDS011;7419;52.184;5.944;2023-02-23T03:09:49;24.58;;;10.59;;
14663;SDS011;7419;52.184;5.944;2023-02-23T03:10:49;22.41;;;11.64;;
14663;SDS011;7419;52.184;5.944;2023-02-23T03:11:50;23.50;;;11.25;;
14663;SDS011;7419;52.184;5.944;2023-02-23T03:12:50;26.55;;;11.40;;
14663;SDS011;7419;52.184;5.944;2023-02-23T03:13:51;23.93;;;10.86;;
14663;SDS011;7419;52.184;5.944;2023-02-23T03:14:48;21.80;;;11.21;;
14663;SDS011;7419;52.184;5.944;2023-02-23T03:15:51;26.59;;;11.98;;
14663;SDS011;7419;52.184;5.944;2023-02-23T03:16:50;19.28;;;9.98;;
14663;SDS011;7419;52.184;5.944;2023-02-23T03:17:50;22.87;;;10.74;;
14663;SDS011;7419;52.184;5.944;2023-02-23T03:18:52;20.98;;;10.37;;
14663;SDS011;7419;52.184;5.944;2023-02-23T03:19:51;21.13;;;9.59;;
14663;SDS011;7419;52.184;5.944;2023-02-23T03:20:49;22.51;;;11.09;;
14663;SDS011;7419;52.184;5.944;2023-02-23T03:21:49;22.54;;;11.14;;
14663;SDS011;7419;52.184;5.944;2023-02-23T03:22:51;24.90;;;11.72;;
14663;SDS011;7419;52.184;5.944;2023-02-23T03:23:50;20.67;;;10.76;;
14663;SDS011;7419;52.184;5.944;2023-02-23T03:24:50;22.22;;;10.91;;
14663;SDS011;7419;52.184;5.944;2023-02-23T03:25:50;20.53;;;10.93;;
14663;SDS011;7419;52.184;5.944;2023-02-23T03:26:50;23.99;;;10.56;;
14663;SDS011;7419;52.184;5.944;2023-02-23T03:27:50;25.41;;;11.82;;
14663;SDS011;7419;52.184;5.944;2023-02-23T03:28:51;23.80;;;10.88;;
14663;SDS011;7419;52.184;5.944;2023-02-23T03:29:51;22.89;;;10.94;;
14663;SDS011;7419;52.184;5.944;2023-02-23T03:30:50;20.92;;;10.90;;
14663;SDS011;7419;52.184;5.944;2023-02-23T03:31:50;25.13;;;12.73;;
14663;SDS011;7419;52.184;5.944;2023-02-23T03:32:49;27.49;;;11.93;;
14663;SDS011;7419;52.184;5.944;2023-02-23T03:33:52;24.02;;;11.22;;
14663;SDS011;7419;52.184;5.944;2023-02-23T03:34:50;25.11;;;12.28;;
14663;SDS011;7419;52.184;5.944;2023-02-23T03:35:50;19.32;;;12.00;;
14663;SDS011;7419;52.184;5.944;2023-02-23T03:36:50;22.78;;;11.11;;
14663;SDS011;7419;52.184;5.944;2023-02-23T03:37:51;22.44;;;10.74;;
14663;SDS011;7419;52.184;5.944;2023-02-23T03:38:51;22.83;;;11.08;;
14663;SDS011;7419;52.184;5.944;2023-02-23T03:39:50;28.37;;;12.26;;
14663;SDS011;7419;52.184;5.944;2023-02-23T03:40:49;20.70;;;10.62;;
14663;SDS011;7419;52.184;5.944;2023-02-23T03:41:49;24.54;;;11.60;;
14663;SDS011;7419;52.184;5.944;2023-02-23T03:42:49;21.57;;;10.59;;
14663;SDS011;7419;52.184;5.944;2023-02-23T03:43:50;21.96;;;10.23;;
14663;SDS011;7419;52.184;5.944;2023-02-23T03:44:49;26.67;;;10.90;;
14663;SDS011;7419;52.184;5.944;2023-02-23T03:45:49;24.38;;;11.30;;
14663;SDS011;7419;52.184;5.944;2023-02-23T03:46:50;22.39;;;10.92;;
14663;SDS011;7419;52.184;5.944;2023-02-23T03:47:50;25.91;;;11.27;;
14663;SDS011;7419;52.184;5.944;2023-02-23T03:48:50;26.34;;;11.78;;
14663;SDS011;7419;52.184;5.944;2023-02-23T03:49:50;22.39;;;10.38;;
14663;SDS011;7419;52.184;5.944;2023-02-23T03:50:51;28.07;;;12.13;;
14663;SDS011;7419;52.184;5.944;2023-02-23T03:51:52;22.14;;;10.86;;
14663;SDS011;7419;52.184;5.944;2023-02-23T03:52:53;24.80;;;11.27;;
14663;SDS011;7419;52.184;5.944;2023-02-23T03:53:51;25.61;;;11.77;;
14663;SDS011;7419;52.184;5.944;2023-02-23T03:54:51;25.93;;;11.76;;
14663;SDS011;7419;52.184;5.944;2023-02-23T03:55:51;22.26;;;10.58;;
14663;SDS011;7419;52.184;5.944;2023-02-23T03:56:50;26.32;;;11.65;;
14663;SDS011;7419;52.184;5.944;2023-02-23T03:57:51;25.13;;;11.23;;
14663;SDS011;7419;52.184;5.944;2023-02-23T03:58:51;24.53;;;11.16;;
14663;SDS011;7419;52.184;5.944;2023-02-23T03:59:52;23.42;;;10.87;;
14663;SDS011;7419;52.184;5.944;2023-02-23T04:00:50;21.03;;;10.54;;
14663;SDS011;7419;52.184;5.944;2023-02-23T04:01:51;23.79;;;10.37;;
14663;SDS011;7419;52.184;5.944;2023-02-23T04:02:50;25.19;;;10.64;;
14663;SDS011;7419;52.184;5.944;2023-02-23T04:03:50;22.42;;;10.33;;
14663;SDS011;7419;52.184;5.944;2023-02-23T04:04:50;21.17;;;10.78;;
14663;SDS011;7419;52.184;5.944;2023-02-23T04:05:51;23.02;;;10.78;;
14663;SDS011;7419;52.184;5.944;2023-02-23T04:06:51;21.32;;;10.85;;
14663;SDS011;7419;52.184;5.944;2023-02-23T04:07:51;23.45;;;11.06;;
14663;SDS011;7419;52.184;5.944;2023-02-23T04:08:51;21.92;;;10.66;;
14663;SDS011;7419;52.184;5.944;2023-02-23T04:09:51;26.45;;;11.39;;
14663;SDS011;7419;52.184;5.944;2023-02-23T04:10:53;29.02;;;13.06;;
14663;SDS011;7419;52.184;5.944;2023-02-23T04:11:53;24.52;;;11.51;;
14663;SDS011;7419;52.184;5.944;2023-02-23T04:12:52;22.28;;;11.39;;
14663;SDS011;7419;52.184;5.944;2023-02-23T04:13:52;19.95;;;10.85;;
14663;SDS011;7419;52.184;5.944;2023-02-23T04:14:53;26.41;;;12.13;;
14663;SDS011;7419;52.184;5.944;2023-02-23T04:15:51;23.58;;;11.60;;
14663;SDS011;7419;52.184;5.944;2023-02-23T04:16:51;23.96;;;11.46;;
14663;SDS011;7419;52.184;5.944;2023-02-23T04:17:51;24.92;;;12.15;;
14663;SDS011;7419;52.184;5.944;2023-02-23T04:18:51;23.44;;;10.93;;
14663;SDS011;7419;52.184;5.944;2023-02-23T04:19:52;24.54;;;11.52;;
14663;SDS011;7419;52.184;5.944;2023-02-23T04:20:52;23.06;;;12.37;;
14663;SDS011;7419;52.184;5.944;2023-02-23T04:21:51;26.69;;;12.17;;
14663;SDS011;7419;52.184;5.944;2023-02-23T04:22:52;28.92;;;12.41;;
14663;SDS011;7419;52.184;5.944;2023-02-23T04:23:52;22.66;;;11.11;;
14663;SDS011;7419;52.184;5.944;2023-02-23T04:24:52;24.59;;;10.67;;
14663;SDS011;7419;52.184;5.944;2023-02-23T04:25:52;19.93;;;11.03;;
14663;SDS011;7419;52.184;5.944;2023-02-23T04:26:52;27.77;;;12.76;;
14663;SDS011;7419;52.184;5.944;2023-02-23T04:27:52;25.73;;;12.10;;
14663;SDS011;7419;52.184;5.944;2023-02-23T04:28:52;20.69;;;10.39;;
14663;SDS011;7419;52.184;5.944;2023-02-23T04:29:52;25.24;;;12.08;;
14663;SDS011;7419;52.184;5.944;2023-02-23T04:30:52;24.48;;;11.77;;
14663;SDS011;7419;52.184;5.944;2023-02-23T04:31:52;24.77;;;11.02;;
14663;SDS011;7419;52.184;5.944;2023-02-23T04:32:52;19.90;;;10.57;;
14663;SDS011;7419;52.184;5.944;2023-02-23T04:33:52;24.46;;;11.37;;
14663;SDS011;7419;52.184;5.944;2023-02-23T04:34:52;23.29;;;10.65;;
14663;SDS011;7419;52.184;5.944;2023-02-23T04:35:53;21.28;;;10.75;;
14663;SDS011;7419;52.184;5.944;2023-02-23T04:36:53;21.13;;;12.02;;
14663;SDS011;7419;52.184;5.944;2023-02-23T04:37:53;25.44;;;12.13;;
14663;SDS011;7419;52.184;5.944;2023-02-23T04:38:53;22.72;;;11.42;;
14663;SDS011;7419;52.184;5.944;2023-02-23T04:39:53;28.54;;;12.15;;
14663;SDS011;7419;52.184;5.944;2023-02-23T04:40:53;23.56;;;11.08;;
14663;SDS011;7419;52.184;5.944;2023-02-23T04:41:53;24.08;;;11.16;;
14663;SDS011;7419;52.184;5.944;2023-02-23T04:42:53;24.02;;;11.58;;
14663;SDS011;7419;52.184;5.944;2023-02-23T04:43:53;24.13;;;11.59;;
14663;SDS011;7419;52.184;5.944;2023-02-23T04:44:53;22.38;;;11.66;;
14663;SDS011;7419;52.184;5.944;2023-02-23T04:45:53;23.13;;;11.26;;
14663;SDS011;7419;52.184;5.944;2023-02-23T04:46:54;24.18;;;11.54;;
14663;SDS011;7419;52.184;5.944;2023-02-23T04:47:53;20.44;;;10.76;;
14663;SDS011;7419;52.184;5.944;2023-02-23T04:48:53;21.43;;;10.73;;
14663;SDS011;7419;52.184;5.944;2023-02-23T04:49:53;24.29;;;10.81;;
14663;SDS011;7419;52.184;5.944;2023-02-23T04:50:53;21.77;;;10.58;;
14663;SDS011;7419;52.184;5.944;2023-02-23T04:51:54;26.76;;;12.70;;
14663;SDS011;7419;52.184;5.944;2023-02-23T04:52:54;23.47;;;11.67;;
14663;SDS011;7419;52.184;5.944;2023-02-23T04:53:54;26.00;;;11.64;;
14663;SDS011;7419;52.184;5.944;2023-02-23T04:54:54;25.28;;;12.21;;
14663;SDS011;7419;52.184;5.944;2023-02-23T04:55:54;24.00;;;11.53;;
14663;SDS011;7419;52.184;5.944;2023-02-23T04:56:54;23.01;;;10.78;;
14663;SDS011;7419;52.184;5.944;2023-02-23T04:57:55;25.46;;;10.89;;
14663;SDS011;7419;52.184;5.944;2023-02-23T04:58:54;28.01;;;11.72;;
14663;SDS011;7419;52.184;5.944;2023-02-23T04:59:54;24.30;;;11.55;;
14663;SDS011;7419;52.184;5.944;2023-02-23T05:00:54;22.73;;;11.87;;
14663;SDS011;7419;52.184;5.944;2023-02-23T05:01:54;22.63;;;11.64;;
14663;SDS011;7419;52.184;5.944;2023-02-23T05:02:54;24.35;;;11.76;;
14663;SDS011;7419;52.184;5.944;2023-02-23T05:03:54;24.71;;;11.43;;
14663;SDS011;7419;52.184;5.944;2023-02-23T05:04:54;23.05;;;11.99;;
14663;SDS011;7419;52.184;5.944;2023-02-23T05:05:54;27.10;;;12.75;;
14663;SDS011;7419;52.184;5.944;2023-02-23T05:06:54;24.63;;;11.94;;
14663;SDS011;7419;52.184;5.944;2023-02-23T05:07:55;28.94;;;11.66;;
14663;SDS011;7419;52.184;5.944;2023-02-23T05:08:55;26.91;;;11.69;;
14663;SDS011;7419;52.184;5.944;2023-02-23T05:09:55;24.84;;;12.24;;
14663;SDS011;7419;52.184;5.944;2023-02-23T05:10:55;23.95;;;12.18;;
14663;SDS011;7419;52.184;5.944;2023-02-23T05:11:55;25.10;;;12.22;;
14663;SDS011;7419;52.184;5.944;2023-02-23T05:12:55;26.67;;;11.26;;
14663;SDS011;7419;52.184;5.944;2023-02-23T05:13:55;22.20;;;10.57;;
14663;SDS011;7419;52.184;5.944;2023-02-23T05:14:55;24.40;;;11.78;;
14663;SDS011;7419;52.184;5.944;2023-02-23T05:15:55;23.78;;;11.95;;
14663;SDS011;7419;52.184;5.944;2023-02-23T05:16:55;23.82;;;11.52;;
14663;SDS011;7419;52.184;5.944;2023-02-23T05:17:55;23.45;;;12.06;;
14663;SDS011;7419;52.184;5.944;2023-02-23T05:18:55;24.23;;;11.46;;
14663;SDS011;7419;52.184;5.944;2023-02-23T05:19:55;22.95;;;10.89;;
14663;SDS011;7419;52.184;5.944;2023-02-23T05:21:00;24.32;;;11.81;;
14663;SDS011;7419;52.184;5.944;2023-02-23T05:21:55;17.41;;;9.75;;
14663;SDS011;7419;52.184;5.944;2023-02-23T05:22:56;26.98;;;10.80;;
14663;SDS011;7419;52.184;5.944;2023-02-23T05:23:56;26.03;;;11.84;;
14663;SDS011;7419;52.184;5.944;2023-02-23T05:24:56;24.74;;;11.96;;
14663;SDS011;7419;52.184;5.944;2023-02-23T05:25:58;24.94;;;11.50;;
14663;SDS011;7419;52.184;5.944;2023-02-23T05:26:56;25.33;;;11.33;;
14663;SDS011;7419;52.184;5.944;2023-02-23T05:27:56;26.01;;;11.79;;
14663;SDS011;7419;52.184;5.944;2023-02-23T05:28:56;21.08;;;11.33;;
14663;SDS011;7419;52.184;5.944;2023-02-23T05:29:56;22.64;;;11.22;;
14663;SDS011;7419;52.184;5.944;2023-02-23T05:30:56;27.18;;;12.03;;
14663;SDS011;7419;52.184;5.944;2023-02-23T05:31:56;22.91;;;11.66;;
14663;SDS011;7419;52.184;5.944;2023-02-23T05:32:56;23.68;;;10.69;;
14663;SDS011;7419;52.184;5.944;2023-02-23T05:33:56;24.61;;;12.21;;
14663;SDS011;7419;52.184;5.944;2023-02-23T05:34:56;29.63;;;12.70;;
14663;SDS011;7419;52.184;5.944;2023-02-23T05:35:56;25.52;;;11.99;;
14663;SDS011;7419;52.184;5.944;2023-02-23T05:36:56;20.98;;;11.42;;
14663;SDS011;7419;52.184;5.944;2023-02-23T05:37:56;24.17;;;11.46;;
14663;SDS011;7419;52.184;5.944;2023-02-23T05:38:57;23.80;;;11.87;;
14663;SDS011;7419;52.184;5.944;2023-02-23T05:39:57;24.60;;;12.59;;
14663;SDS011;7419;52.184;5.944;2023-02-23T05:40:57;25.49;;;11.41;;
14663;SDS011;7419;52.184;5.944;2023-02-23T05:41:57;24.87;;;11.54;;
14663;SDS011;7419;52.184;5.944;2023-02-23T05:42:57;25.04;;;11.68;;
14663;SDS011;7419;52.184;5.944;2023-02-23T05:43:57;24.79;;;12.00;;
14663;SDS011;7419;52.184;5.944;2023-02-23T05:44:57;22.97;;;10.88;;
14663;SDS011;7419;52.184;5.944;2023-02-23T05:45:57;28.79;;;12.83;;
14663;SDS011;7419;52.184;5.944;2023-02-23T05:46:57;27.70;;;11.65;;
14663;SDS011;7419;52.184;5.944;2023-02-23T05:47:57;25.16;;;12.31;;
14663;SDS011;7419;52.184;5.944;2023-02-23T05:48:58;25.35;;;12.14;;
14663;SDS011;7419;52.184;5.944;2023-02-23T05:49:57;25.69;;;12.72;;
14663;SDS011;7419;52.184;5.944;2023-02-23T05:50:59;25.01;;;12.34;;
14663;SDS011;7419;52.184;5.944;2023-02-23T05:51:57;26.43;;;12.01;;
14663;SDS011;7419;52.184;5.944;2023-02-23T05:52:57;26.48;;;12.16;;
14663;SDS011;7419;52.184;5.944;2023-02-23T05:53:57;24.44;;;12.50;;
14663;SDS011;7419;52.184;5.944;2023-02-23T05:54:58;23.99;;;11.86;;
14663;SDS011;7419;52.184;5.944;2023-02-23T05:55:58;23.62;;;11.70;;
14663;SDS011;7419;52.184;5.944;2023-02-23T05:56:58;21.22;;;11.48;;
14663;SDS011;7419;52.184;5.944;2023-02-23T05:57:58;24.49;;;12.03;;
14663;SDS011;7419;52.184;5.944;2023-02-23T05:58:58;25.44;;;11.91;;
14663;SDS011;7419;52.184;5.944;2023-02-23T05:59:58;20.23;;;10.56;;
14663;SDS011;7419;52.184;5.944;2023-02-23T06:00:58;24.64;;;11.40;;
14663;SDS011;7419;52.184;5.944;2023-02-23T06:01:58;26.12;;;11.62;;
14663;SDS011;7419;52.184;5.944;2023-02-23T06:02:58;25.65;;;11.65;;